00:30
Airports
History
Links
Donate
Help keep this website running!
PayPal
Bitcoin
Information on this page is community maintained and may be outdated or inaccurate and is intended for reference only or PC simulator navigating.
Always use approved charts for navigating.
ENSR
Sorkjosen
Sorkjosen (ENSR)
Sørkjosen, Troms, Norway (9152)
(C)
Lat/Lng:69° 47' 14.2" N / 20° 57' 31.77" E
69.787279 / 20.958825
Elevation:16'ft 5mMSL
ID / ICAO:ENSR
Runways:1
Longest:(15-33) 981.7m 3,221ft Asphalt
Controlled:Yes
Distance To
Airport ID:
Airport Radio Frequencies
Tower: 119.6
Nearby VORs <50NM
Nearby NDBs
METARUpdated 07-24-17 17:20 GMT
Altimeter: 30.12
Visibility: 6.2 statute miles
Wind: 5 knots (100°)
Temp: 15°c 59°f
Humidity: 82.2%

METAR: ENSR 241720Z 34006KT CAVOK 15/12 Q1020 WIND 1119FT 10005KT

(Powered by phpweather)
Runway 15 / 33
Dimensions:981.7 x 29.9m 3221' x 98'ft
Surface:Asphalt
Runway 15 [A]Runway 33 [B]
Heading:334°TH 154°TH
Lat:
Lng:
69° 46' 59.86"N
20° 57' 51.9"E
69° 47' 28.55"N
20° 57' 11.64"E
ALS:MALSFMALSF
User Notes and Comments
Google Map
Nearby Airports
(C) Tromso Langnes 49.3 NM
ENTC (WX) W 261°
(U) HASVIK 55.7 NM
ENHK NNE 29°
(C) ALTA 58.7 NM
ENAT (WX) ENE 77°
(C) Kautokeino 72.1 NM
ENKA SE 135°
(C) Bardufoss 77.5 NM
ENDU (WX) SW 229°
(C) Hammerfest 88.3 NM
ENHF (WX) NE 45°
(C) BANAK 97.1 NM
ENNA (WX) ENE 78°
VFR Chart
Flight Planning at SkyVector.com